Time;durP1;ratioP1;P1;durP2;ratioP2;P2;SDS_P1;SDS_P2;PMS_P1;PMS_P2;Temp;Humidity;BMP_temperature;BMP_pressure;BME280_temperature;BME280_humidity;BME280_pressure;Samples;Min_cycle;Max_cycle;Signal;HPM_P1;HPM_P2
2023/06/25 00:00:55;;;;;;;;;;;;;;;14.95;64.79;101722.27;107401;1254;124334;-81
2023/06/25 00:03:41;;;;;;;;;;;;;;;14.88;64.85;101718.57;107679;1254;68978;-81
2023/06/25 00:06:11;;;;;;;;;;;;;;;14.82;64.92;101718.07;107706;1256;72696;-82
2023/06/25 00:08:43;;;;;;;;;;;;;;;14.74;64.96;101714.19;107572;1253;61690;-82
2023/06/25 00:11:12;;;;;;;;;;;;;;;14.69;65.15;101717.24;107505;1253;61187;-82
2023/06/25 00:13:45;;;;;;;;;;;;;;;14.63;65.29;101715.86;107362;1254;124796;-82
2023/06/25 00:16:16;;;;;;;;;;;;;;;14.57;65.36;101716.08;107606;1253;67277;-82
2023/06/25 00:18:49;;;;;;;;;;;;;;;14.51;65.50;101714.33;107444;1254;124384;-82
2023/06/25 00:21:16;;;;;;;;;;;;;;;14.46;65.60;101713.84;107549;1254;61399;-82
2023/06/25 00:23:44;;;;;;;;;;;;;;;14.42;65.66;101712.68;107438;1254;59336;-83
2023/06/25 00:26:12;;;;;;;;;;;;;;;14.38;65.88;101710.28;107319;1253;124011;-83
2023/06/25 00:28:39;;;;;;;;;;;;;;;14.35;65.99;101707.38;107502;1254;65735;-82
2023/06/25 00:31:06;;;;;;;;;;;;;;;14.30;66.16;101704.26;107374;1255;124849;-82
2023/06/25 00:33:35;;;;;;;;;;;;;;;14.25;66.22;101706.07;107368;1254;60086;-82
2023/06/25 00:36:05;;;;;;;;;;;;;;;14.21;66.34;101702.80;107383;1254;61003;-82
2023/06/25 00:38:39;;;;;;;;;;;;;;;14.16;66.54;101701.63;107300;1257;124718;-82
2023/06/25 00:41:06;;;;;;;;;;;;;;;14.12;66.51;101698.85;107406;1254;67621;-82
2023/06/25 00:43:33;;;;;;;;;;;;;;;14.06;66.59;101699.06;107485;1254;124612;-84
2023/06/25 00:46:00;;;;;;;;;;;;;;;14.02;66.78;101698.97;107597;1255;61218;-81
2023/06/25 00:48:27;;;;;;;;;;;;;;;13.99;66.94;101701.00;107549;1254;124544;-81
2023/06/25 00:51:00;;;;;;;;;;;;;;;13.95;66.99;101701.77;107545;1254;74696;-81
2023/06/25 00:53:29;;;;;;;;;;;;;;;13.91;67.07;101702.38;107415;1261;66818;-81
2023/06/25 00:55:56;;;;;;;;;;;;;;;13.88;67.26;101703.86;107464;1254;124773;-82
2023/06/25 00:58:24;;;;;;;;;;;;;;;13.85;67.28;101700.27;107762;1254;60472;-82
2023/06/25 01:00:52;;;;;;;;;;;;;;;13.83;67.42;101696.52;107519;1256;124503;-81
2023/06/25 01:03:39;;;;;;;;;;;;;;;13.78;67.43;101693.57;107669;1256;73450;-81
2023/06/25 01:06:09;;;;;;;;;;;;;;;13.74;67.63;101696.44;107768;1254;65631;-82
2023/06/25 01:08:37;;;;;;;;;;;;;;;13.70;67.65;101694.04;107850;1256;72727;-82
2023/06/25 01:11:10;;;;;;;;;;;;;;;13.66;67.75;101691.45;107831;1254;61737;-82
2023/06/25 01:13:37;;;;;;;;;;;;;;;13.59;67.95;101692.16;107646;1254;124118;-83
2023/06/25 01:16:04;;;;;;;;;;;;;;;13.53;67.90;101687.41;107722;1254;74651;-83
2023/06/25 01:18:32;;;;;;;;;;;;;;;13.50;68.12;101687.85;107704;1257;124673;-83
2023/06/25 01:21:00;;;;;;;;;;;;;;;13.48;68.22;101681.10;107183;1254;72688;-83
2023/06/25 01:23:30;;;;;;;;;;;;;;;13.47;68.37;101680.90;107382;1256;60770;-83
2023/06/25 01:25:58;;;;;;;;;;;;;;;13.45;68.33;101676.41;107493;1258;124253;-82
2023/06/25 01:28:25;;;;;;;;;;;;;;;13.41;68.49;101674.02;107677;1254;75187;-83
2023/06/25 01:30:58;;;;;;;;;;;;;;;13.38;68.48;101671.84;107528;1254;125220;-82
2023/06/25 01:33:26;;;;;;;;;;;;;;;13.36;68.59;101663.85;107700;1253;72412;-83
2023/06/25 01:35:53;;;;;;;;;;;;;;;13.36;68.75;101665.96;107645;1256;61281;-82
2023/06/25 01:38:20;;;;;;;;;;;;;;;13.37;68.86;101664.05;107305;1254;124978;-82
2023/06/25 01:40:47;;;;;;;;;;;;;;;13.38;69.03;101662.83;107908;1258;74508;-82
2023/06/25 01:43:14;;;;;;;;;;;;;;;13.38;69.02;101661.77;108190;1254;123778;-82
2023/06/25 01:45:41;;;;;;;;;;;;;;;13.38;69.04;101661.79;108031;1254;71657;-82
2023/06/25 01:48:09;;;;;;;;;;;;;;;13.39;69.06;101664.10;107864;1254;61236;-82
2023/06/25 01:50:38;;;;;;;;;;;;;;;13.41;69.20;101659.92;107320;1254;124811;-83
2023/06/25 01:53:05;;;;;;;;;;;;;;;13.43;69.24;101657.33;107691;1254;74979;-83
2023/06/25 01:55:32;;;;;;;;;;;;;;;13.45;69.29;101653.85;107417;1254;125425;-84
2023/06/25 01:58:05;;;;;;;;;;;;;;;13.45;69.56;101659.70;107575;1254;71439;-84
2023/06/25 02:00:40;;;;;;;;;;;;;;;13.48;69.56;101653.58;107458;1254;125436;-84
2023/06/25 02:03:09;;;;;;;;;;;;;;;13.50;69.55;101654.00;107767;1257;61285;-84
2023/06/25 02:05:42;;;;;;;;;;;;;;;13.52;69.62;101651.42;107564;1253;74768;-85
2023/06/25 02:08:15;;;;;;;;;;;;;;;13.54;69.71;101651.64;107311;1254;125006;-84
2023/06/25 02:10:42;;;;;;;;;;;;;;;13.57;69.81;101654.38;107420;1254;72111;-84
2023/06/25 02:13:10;;;;;;;;;;;;;;;13.61;69.78;101658.17;107232;1254;124958;-83
2023/06/25 02:15:40;;;;;;;;;;;;;;;13.64;69.74;101657.02;107338;1254;60500;-84
2023/06/25 02:18:13;;;;;;;;;;;;;;;13.67;69.83;101656.94;107543;1254;73393;-84
2023/06/25 02:20:58;;;;;;;;;;;;;;;13.69;69.70;101657.70;107348;1254;67557;-84
2023/06/25 02:23:27;;;;;;;;;;;;;;;13.71;69.69;101653.86;107421;1254;73142;-84
2023/06/25 02:25:54;;;;;;;;;;;;;;;13.73;69.64;101653.92;107364;1254;125223;-83
2023/06/25 02:28:21;;;;;;;;;;;;;;;13.76;69.67;101649.77;107705;1257;61663;-83
2023/06/25 02:30:56;;;;;;;;;;;;;;;13.79;69.63;101646.14;107594;1253;124919;-83
2023/06/25 02:33:23;;;;;;;;;;;;;;;13.85;69.69;101640.30;107595;1254;67594;-84
2023/06/25 02:35:52;;;;;;;;;;;;;;;13.90;69.68;101643.42;107677;1253;71704;-83
2023/06/25 02:38:20;;;;;;;;;;;;;;;13.93;69.62;101640.16;107568;1254;124753;-83
2023/06/25 02:40:47;;;;;;;;;;;;;;;13.98;69.59;101641.48;107375;1254;62165;-83
2023/06/25 02:43:27;;;;;;;;;;;;;;;14.01;69.60;101647.94;107451;1253;124923;-83
2023/06/25 02:46:00;;;;;;;;;;;;;;;14.07;69.49;101643.30;107387;1254;65871;-83
2023/06/25 02:48:29;;;;;;;;;;;;;;;14.12;69.47;101646.10;107581;1254;125281;-83
2023/06/25 02:50:57;;;;;;;;;;;;;;;14.16;69.42;101641.77;107538;1253;60290;-83
2023/06/25 02:53:24;;;;;;;;;;;;;;;14.20;69.36;101639.41;107757;1253;59417;-82
2023/06/25 02:56:00;;;;;;;;;;;;;;;14.26;69.39;101640.25;107407;1253;124319;-83
2023/06/25 02:58:28;;;;;;;;;;;;;;;14.34;69.44;101643.96;107490;1254;64853;-83
2023/06/25 03:00:55;;;;;;;;;;;;;;;14.41;69.48;101645.20;107110;1254;124592;-83
2023/06/25 03:03:22;;;;;;;;;;;;;;;14.48;69.39;101643.06;107252;1254;61328;-83
2023/06/25 03:05:49;;;;;;;;;;;;;;;14.52;69.48;101642.29;107849;1254;61336;-83
2023/06/25 03:08:16;;;;;;;;;;;;;;;14.59;69.44;101640.86;107355;1254;124691;-82
2023/06/25 03:10:43;;;;;;;;;;;;;;;14.67;69.45;101642.48;107667;1258;67072;-83
2023/06/25 03:13:13;;;;;;;;;;;;;;;14.74;69.39;101638.39;107472;1254;124827;-82
2023/06/25 03:15:41;;;;;;;;;;;;;;;14.82;69.27;101632.54;107892;1254;61005;-83
2023/06/25 03:18:08;;;;;;;;;;;;;;;14.90;69.16;101629.89;107285;1254;61753;-82
2023/06/25 03:20:43;;;;;;;;;;;;;;;14.99;69.09;101633.44;107182;1254;124571;-84
2023/06/25 03:23:11;;;;;;;;;;;;;;;15.09;68.93;101626.92;107832;1254;67043;-83
2023/06/25 03:25:38;;;;;;;;;;;;;;;15.20;68.99;101624.85;107697;1254;124685;-83
2023/06/25 03:28:05;;;;;;;;;;;;;;;15.34;69.07;101624.08;107629;1254;61240;-82
2023/06/25 03:30:32;;;;;;;;;;;;;;;15.63;69.64;101620.38;107537;1254;124251;-82
2023/06/25 03:32:59;;;;;;;;;;;;;;;16.16;69.80;101621.64;107683;1254;73053;-83
2023/06/25 03:35:26;;;;;;;;;;;;;;;16.61;69.18;101623.56;107852;1253;65777;-83
2023/06/25 03:37:53;;;;;;;;;;;;;;;16.79;68.25;101625.58;107300;1254;124161;-83
2023/06/25 03:40:20;;;;;;;;;;;;;;;16.84;67.76;101623.73;107304;1254;61374;-83
2023/06/25 03:42:53;;;;;;;;;;;;;;;16.93;67.59;101620.83;107438;1256;124334;-83
2023/06/25 03:45:20;;;;;;;;;;;;;;;17.08;67.49;101622.27;107888;1254;75000;-83
2023/06/25 03:47:52;;;;;;;;;;;;;;;17.32;67.35;101625.55;107820;1254;65184;-83
2023/06/25 03:50:19;;;;;;;;;;;;;;;17.99;68.01;101625.50;107593;1254;124654;-83
2023/06/25 03:52:46;;;;;;;;;;;;;;;20.00;69.54;101619.95;107498;1254;60470;-83
2023/06/25 03:55:13;;;;;;;;;;;;;;;22.55;67.87;101615.43;107746;1254;124099;-84
2023/06/25 03:57:40;;;;;;;;;;;;;;;24.79;64.40;101608.11;107768;1257;74991;-84
2023/06/25 04:00:08;;;;;;;;;;;;;;;26.70;61.62;101610.92;107506;1254;67139;-84
2023/06/25 04:02:35;;;;;;;;;;;;;;;28.52;58.91;101609.42;107323;1254;124285;-84
2023/06/25 04:05:10;;;;;;;;;;;;;;;30.06;56.06;101613.92;107648;1254;60999;-85
2023/06/25 04:07:37;;;;;;;;;;;;;;;31.58;53.22;101615.16;107608;1254;124153;-84
2023/06/25 04:10:06;;;;;;;;;;;;;;;32.81;50.75;101615.69;107567;1256;65753;-83
2023/06/25 04:12:41;;;;;;;;;;;;;;;33.88;48.28;101614.95;107462;1254;124839;-83
2023/06/25 04:15:11;;;;;;;;;;;;;;;34.79;46.08;101612.54;107517;1254;63958;-83
2023/06/25 04:17:40;;;;;;;;;;;;;;;35.69;44.23;101611.81;107524;1254;62188;-83
2023/06/25 04:20:08;;;;;;;;;;;;;;;36.50;42.48;101610.27;107305;1254;124881;-84
2023/06/25 04:22:35;;;;;;;;;;;;;;;37.13;40.75;101611.98;107472;1254;64477;-83
2023/06/25 04:25:02;;;;;;;;;;;;;;;37.48;38.89;101609.40;106981;1254;305218;-83
2023/06/25 04:27:30;;;;;;;;;;;;;;;37.65;37.97;101610.11;107467;1255;63970;-84
2023/06/25 04:29:57;;;;;;;;;;;;;;;38.27;37.11;101608.98;107899;1252;59632;-84
2023/06/25 04:32:26;;;;;;;;;;;;;;;39.04;36.02;101607.86;107638;1254;124928;-84
2023/06/25 04:34:54;;;;;;;;;;;;;;;38.45;34.32;101606.85;107712;1254;65772;-83
2023/06/25 04:37:25;;;;;;;;;;;;;;;36.54;33.72;101608.80;107346;1259;124275;-84
2023/06/25 04:39:54;;;;;;;;;;;;;;;34.36;33.95;101613.59;107392;1257;63797;-84
2023/06/25 04:42:21;;;;;;;;;;;;;;;32.37;34.80;101617.45;107279;1259;124363;-84
2023/06/25 04:44:56;;;;;;;;;;;;;;;30.86;35.72;101621.06;107370;1254;62264;-84
2023/06/25 04:47:23;;;;;;;;;;;;;;;29.69;36.72;101622.69;107481;1254;66165;-83
2023/06/25 04:49:50;;;;;;;;;;;;;;;29.31;37.73;101622.24;107442;1257;125066;-82
2023/06/25 04:52:21;;;;;;;;;;;;;;;29.31;37.95;101616.64;107638;1254;62787;-83
2023/06/25 04:54:48;;;;;;;;;;;;;;;29.07;38.28;101612.14;107460;1255;124877;-85
2023/06/25 04:57:17;;;;;;;;;;;;;;;29.64;38.82;101610.95;107542;1255;61259;-83
2023/06/25 04:59:45;;;;;;;;;;;;;;;30.76;38.61;101606.65;107588;1254;64518;-83
2023/06/25 05:02:12;;;;;;;;;;;;;;;31.45;37.53;101607.29;107716;1254;124717;-85
2023/06/25 05:04:48;;;;;;;;;;;;;;;31.44;37.20;101605.34;107412;1254;62562;-84
2023/06/25 05:07:23;;;;;;;;;;;;;;;31.89;37.69;101603.43;107270;1254;124228;-83
2023/06/25 05:09:50;;;;;;;;;;;;;;;33.44;37.09;101605.80;107689;1259;61256;-83
2023/06/25 05:12:18;;;;;;;;;;;;;;;34.60;35.35;101608.22;107381;1259;124673;-82
2023/06/25 05:14:53;;;;;;;;;;;;;;;34.26;34.44;101609.59;107457;1254;59264;-81
2023/06/25 05:17:21;;;;;;;;;;;;;;;35.07;34.49;101606.70;107351;1260;63754;-82
2023/06/25 05:19:49;;;;;;;;;;;;;;;36.50;33.78;101605.69;107616;1254;124394;-83
2023/06/25 05:22:17;;;;;;;;;;;;;;;37.78;32.60;101602.52;107558;1256;60100;-83
2023/06/25 05:24:48;;;;;;;;;;;;;;;38.62;31.68;101603.67;107394;1255;124394;-82
2023/06/25 05:27:16;;;;;;;;;;;;;;;39.70;30.97;101600.36;107617;1257;60178;-83
2023/06/25 05:29:45;;;;;;;;;;;;;;;40.47;30.19;101595.34;107375;1256;62780;-84
2023/06/25 05:32:12;;;;;;;;;;;;;;;41.06;29.19;101599.44;107455;1254;124313;-83
2023/06/25 05:34:39;;;;;;;;;;;;;;;41.70;28.69;101600.95;107667;1257;61394;-83
2023/06/25 05:37:13;;;;;;;;;;;;;;;42.39;28.24;101597.67;107547;1254;124943;-83
2023/06/25 05:39:40;;;;;;;;;;;;;;;43.28;27.42;101597.98;107705;1255;61823;-83
2023/06/25 05:42:07;;;;;;;;;;;;;;;43.53;26.50;101593.01;107680;1255;63735;-82
2023/06/25 05:44:35;;;;;;;;;;;;;;;42.29;25.44;101589.88;107535;1255;124523;-83
2023/06/25 05:47:02;;;;;;;;;;;;;;;39.82;25.72;101582.09;107810;1254;60876;-85
2023/06/25 05:49:32;;;;;;;;;;;;;;;37.48;26.58;101578.33;107788;1255;124347;-84
2023/06/25 05:52:01;;;;;;;;;;;;;;;35.50;27.62;101577.75;107702;1254;60773;-84
2023/06/25 05:54:28;;;;;;;;;;;;;;;33.53;28.48;101575.61;107543;1257;124460;-84
2023/06/25 05:57:03;;;;;;;;;;;;;;;31.77;29.91;101570.78;107557;1259;59632;-84
2023/06/25 05:59:31;;;;;;;;;;;;;;;30.47;31.18;101571.21;107367;1254;61221;-84
2023/06/25 06:02:01;;;;;;;;;;;;;;;29.47;32.14;101569.16;107506;1254;124400;-84
2023/06/25 06:04:28;;;;;;;;;;;;;;;28.64;33.28;101566.06;107718;1254;67105;-83
2023/06/25 06:07:08;;;;;;;;;;;;;;;28.02;33.93;101567.37;107511;1253;124766;-84
2023/06/25 06:09:35;;;;;;;;;;;;;;;27.28;34.89;101566.74;107491;1254;61219;-84
2023/06/25 06:12:09;;;;;;;;;;;;;;;26.74;35.72;101567.48;107867;1254;60463;-83
2023/06/25 06:14:55;;;;;;;;;;;;;;;26.28;36.47;101567.64;107716;1257;124017;-84
2023/06/25 06:17:23;;;;;;;;;;;;;;;25.87;37.41;101565.13;107569;1254;67407;-83
2023/06/25 06:19:58;;;;;;;;;;;;;;;25.56;37.95;101562.31;107302;1260;124923;-82
2023/06/25 06:22:24;;;;;;;;;;;;;;;25.27;38.59;101559.03;107966;1253;60460;-84
2023/06/25 06:24:54;;;;;;;;;;;;;;;25.05;39.08;101560.95;107552;1254;125089;-84
2023/06/25 06:27:22;;;;;;;;;;;;;;;24.86;39.56;101564.77;107595;1256;74725;-83
2023/06/25 06:29:49;;;;;;;;;;;;;;;24.67;39.87;101565.88;107568;1254;67042;-83
2023/06/25 06:32:22;;;;;;;;;;;;;;;24.47;40.37;101565.35;107495;1254;71718;-82
2023/06/25 06:34:50;;;;;;;;;;;;;;;24.31;40.73;101560.30;107339;1254;60156;-84
2023/06/25 06:37:22;;;;;;;;;;;;;;;24.17;41.27;101561.98;107312;1254;125196;-83
2023/06/25 06:39:50;;;;;;;;;;;;;;;24.06;41.47;101557.52;107715;1254;73083;-83
2023/06/25 06:42:17;;;;;;;;;;;;;;;23.95;41.68;101561.13;107832;1254;66730;-83
2023/06/25 06:44:56;;;;;;;;;;;;;;;23.90;42.02;101561.05;107966;1254;72488;-83
2023/06/25 06:47:23;;;;;;;;;;;;;;;23.86;42.24;101564.16;107786;1254;61262;-83
2023/06/25 06:49:50;;;;;;;;;;;;;;;23.80;42.49;101563.17;107224;1254;124201;-84
2023/06/25 06:52:20;;;;;;;;;;;;;;;23.76;42.78;101564.30;107381;1254;73316;-84
2023/06/25 06:54:49;;;;;;;;;;;;;;;23.71;42.93;101563.30;107400;1254;125223;-83
2023/06/25 06:57:16;;;;;;;;;;;;;;;23.71;43.16;101565.64;107497;1254;71375;-84
2023/06/25 06:59:48;;;;;;;;;;;;;;;23.70;43.33;101564.75;107476;1254;61227;-84
2023/06/25 07:02:19;;;;;;;;;;;;;;;23.68;43.50;101566.91;107478;1254;124666;-83
2023/06/25 07:04:51;;;;;;;;;;;;;;;23.68;43.46;101568.72;107693;1254;74970;-84
2023/06/25 07:07:18;;;;;;;;;;;;;;;23.67;43.52;101564.98;107485;1259;124358;-84
2023/06/25 07:09:50;;;;;;;;;;;;;;;23.66;43.42;101564.81;107334;1254;72674;-82
2023/06/25 07:12:24;;;;;;;;;;;;;;;23.65;43.66;101561.79;107432;1254;124794;-85
2023/06/25 07:15:02;;;;;;;;;;;;;;;23.60;43.66;101564.91;107373;1260;61218;-84
2023/06/25 07:17:36;;;;;;;;;;;;;;;23.47;43.63;101564.75;107486;1253;73047;-83
2023/06/25 07:20:07;;;;;;;;;;;;;;;23.40;44.08;101559.33;107606;1257;124815;-83
2023/06/25 07:22:34;;;;;;;;;;;;;;;23.40;44.21;101560.04;107630;1254;72149;-82
2023/06/25 07:25:07;;;;;;;;;;;;;;;23.43;44.31;101557.64;107401;1260;124450;-85
2023/06/25 07:27:39;;;;;;;;;;;;;;;23.48;44.39;101552.55;107868;1254;59438;-83
2023/06/25 07:30:17;;;;;;;;;;;;;;;23.53;44.54;101557.13;107492;1254;75160;-85
2023/06/25 07:32:57;;;;;;;;;;;;;;;23.58;44.65;101557.08;107727;1254;124141;-85
2023/06/25 07:35:24;;;;;;;;;;;;;;;23.58;44.49;101557.59;107836;1253;72438;-86
2023/06/25 07:41:37;;;;;;;;;;;;;;;23.51;44.86;101558.96;107965;1254;60437;-86
2023/06/25 07:44:11;;;;;;;;;;;;;;;23.57;44.78;101560.31;107595;1254;124553;-85
2023/06/25 07:46:38;;;;;;;;;;;;;;;23.59;44.56;101562.41;107437;1260;64802;-84
2023/06/25 07:49:06;;;;;;;;;;;;;;;23.52;44.29;101562.00;107580;1254;124260;-84
2023/06/25 07:51:34;;;;;;;;;;;;;;;23.44;44.29;101561.40;107747;1254;61692;-85
2023/06/25 07:54:14;;;;;;;;;;;;;;;23.46;44.37;101557.23;107598;1254;60609;-84
2023/06/25 07:56:41;;;;;;;;;;;;;;;23.56;44.53;101557.82;107328;1257;124161;-85
2023/06/25 07:59:24;;;;;;;;;;;;;;;23.67;44.54;101559.42;107305;1254;67105;-85
2023/06/25 08:01:52;;;;;;;;;;;;;;;23.64;44.37;101561.27;107516;1254;124182;-84
2023/06/25 08:04:45;;;;;;;;;;;;;;;23.58;44.34;101558.48;107623;1254;60226;-84
2023/06/25 08:07:30;;;;;;;;;;;;;;;23.54;44.55;101560.52;107386;1254;124252;-88
2023/06/25 08:10:20;;;;;;;;;;;;;;;23.45;44.28;101562.80;107340;1254;74425;-87
2023/06/25 08:12:58;;;;;;;;;;;;;;;23.33;44.34;101561.05;107096;1255;124404;-84
2023/06/25 08:15:25;;;;;;;;;;;;;;;23.26;44.55;101562.02;107434;1254;71136;-84
2023/06/25 08:17:52;;;;;;;;;;;;;;;23.31;44.66;101566.08;107468;1254;61256;-85
2023/06/25 08:20:26;;;;;;;;;;;;;;;23.42;44.53;101559.83;107397;1254;123092;-88
2023/06/25 08:23:21;;;;;;;;;;;;;;;23.51;44.44;101555.75;107215;1254;75256;-88
2023/06/25 08:25:49;;;;;;;;;;;;;;;23.57;44.28;101552.41;107262;1254;124496;-88
2023/06/25 08:28:38;;;;;;;;;;;;;;;23.64;44.32;101552.12;107150;1254;70253;-90
2023/06/25 08:31:26;;;;;;;;;;;;;;;23.76;44.34;101551.20;107324;1254;124310;-86
2023/06/25 08:34:10;;;;;;;;;;;;;;;23.91;44.34;101546.69;107642;1253;61288;-87
2023/06/25 08:37:04;;;;;;;;;;;;;;;24.03;44.20;101546.99;107553;1254;124471;-90
2023/06/25 08:39:54;;;;;;;;;;;;;;;24.17;44.01;101542.44;107560;1254;65549;-87
2023/06/25 08:42:28;;;;;;;;;;;;;;;24.34;43.88;101539.42;107582;1254;72706;-86
2023/06/25 08:45:05;;;;;;;;;;;;;;;24.51;43.75;101539.99;107517;1254;61361;-89
2023/06/25 08:47:36;;;;;;;;;;;;;;;24.70;43.92;101539.44;107578;1254;60429;-86
2023/06/25 08:50:03;;;;;;;;;;;;;;;24.92;43.60;101539.31;107302;1254;124493;-85
2023/06/25 08:52:38;;;;;;;;;;;;;;;25.08;43.12;101534.83;107580;1254;66864;-84
2023/06/25 08:55:11;;;;;;;;;;;;;;;25.20;43.03;101533.32;107451;1254;124378;-85
2023/06/25 08:57:51;;;;;;;;;;;;;;;25.30;42.79;101533.81;107472;1257;60277;-85
2023/06/25 09:00:19;;;;;;;;;;;;;;;25.41;42.71;101533.02;107383;1254;61235;-84
2023/06/25 09:05:53;;;;;;;;;;;;;;;25.57;41.96;101537.83;107617;1254;65572;-84
2023/06/25 09:08:28;;;;;;;;;;;;;;;25.77;41.87;101536.42;107398;1254;124784;-81
2023/06/25 09:11:15;;;;;;;;;;;;;;;25.95;41.71;101535.09;107478;1253;60202;-86
2023/06/25 09:13:53;;;;;;;;;;;;;;;26.13;41.32;101536.39;107247;1254;124079;-82
2023/06/25 09:16:27;;;;;;;;;;;;;;;26.33;41.15;101536.39;107280;1254;73368;-83
2023/06/25 09:18:56;;;;;;;;;;;;;;;26.49;40.73;101529.27;107238;1254;124755;-83
2023/06/25 09:21:40;;;;;;;;;;;;;;;26.58;40.63;101531.89;107889;1254;71217;-83
2023/06/25 09:24:17;;;;;;;;;;;;;;;26.57;40.57;101533.73;107338;1254;60548;-83
2023/06/25 09:26:48;;;;;;;;;;;;;;;26.37;40.44;101530.52;107573;1254;124019;-80
2023/06/25 09:29:16;;;;;;;;;;;;;;;26.31;40.44;101526.55;107500;1254;74735;-81
2023/06/25 09:31:49;;;;;;;;;;;;;;;26.32;40.85;101530.83;107380;1254;125121;-81
2023/06/25 09:34:16;;;;;;;;;;;;;;;26.31;41.19;101527.10;107540;1254;72401;-82
2023/06/25 09:36:44;;;;;;;;;;;;;;;26.28;41.37;101527.71;107366;1254;124890;-83
2023/06/25 09:39:11;;;;;;;;;;;;;;;26.28;41.11;101523.23;107742;1255;60504;-82
2023/06/25 09:41:40;;;;;;;;;;;;;;;26.29;41.22;101521.42;107766;1253;73356;-82
2023/06/25 09:44:07;;;;;;;;;;;;;;;26.27;41.06;101523.07;107774;1254;124120;-82
2023/06/25 09:46:35;;;;;;;;;;;;;;;26.21;40.94;101524.85;107481;1254;72813;-82
2023/06/25 09:49:03;;;;;;;;;;;;;;;26.16;40.84;101525.88;107346;1253;124333;-82
2023/06/25 09:51:42;;;;;;;;;;;;;;;26.06;40.59;101525.80;107270;1254;60394;-82
2023/06/25 09:54:11;;;;;;;;;;;;;;;25.98;40.80;101527.64;107553;1254;74670;-84
2023/06/25 09:56:45;;;;;;;;;;;;;;;25.95;40.79;101520.17;108021;1256;124401;-84
2023/06/25 09:59:12;;;;;;;;;;;;;;;26.04;40.60;101525.16;107284;1259;72723;-84
2023/06/25 10:01:45;;;;;;;;;;;;;;;26.11;40.58;101519.55;107323;1254;124067;-85
2023/06/25 10:04:12;;;;;;;;;;;;;;;26.15;40.53;101523.75;107483;1254;60585;-86
2023/06/25 10:06:39;;;;;;;;;;;;;;;26.18;40.54;101519.34;107433;1254;124325;-84
2023/06/25 10:09:08;;;;;;;;;;;;;;;26.21;40.38;101520.88;107633;1256;65519;-86
2023/06/25 10:11:36;;;;;;;;;;;;;;;26.15;40.25;101519.78;107517;1256;72552;-82
2023/06/25 10:14:03;;;;;;;;;;;;;;;26.10;40.35;101515.78;107642;1256;124368;-82
2023/06/25 10:16:31;;;;;;;;;;;;;;;26.05;40.49;101513.77;107668;1257;60191;-82
2023/06/25 10:18:58;;;;;;;;;;;;;;;25.94;40.66;101509.55;107495;1258;74714;-82
2023/06/25 10:21:33;;;;;;;;;;;;;;;25.77;40.76;101510.53;107504;1257;67059;-82
2023/06/25 10:24:01;;;;;;;;;;;;;;;25.66;40.94;101507.95;107565;1257;70667;-83
2023/06/25 10:26:32;;;;;;;;;;;;;;;25.59;41.12;101508.30;107210;1257;124355;-83
2023/06/25 10:29:03;;;;;;;;;;;;;;;25.45;41.32;101508.30;107290;1256;61741;-83
2023/06/25 10:31:38;;;;;;;;;;;;;;;25.35;41.57;101506.02;107167;1257;125463;-82
2023/06/25 10:34:05;;;;;;;;;;;;;;;25.32;41.58;101502.69;107488;1257;68681;-84
2023/06/25 10:36:43;;;;;;;;;;;;;;;25.30;41.61;101503.11;107312;1257;72516;-82
2023/06/25 10:39:18;;;;;;;;;;;;;;;25.22;41.69;101501.65;107229;1256;124229;-82
2023/06/25 10:41:55;;;;;;;;;;;;;;;25.13;41.72;101502.22;107436;1256;61355;-81
2023/06/25 10:44:28;;;;;;;;;;;;;;;25.04;41.90;101504.39;107534;1256;124531;-84
2023/06/25 10:47:03;;;;;;;;;;;;;;;24.97;41.95;101506.16;107613;1257;66802;-79
2023/06/25 10:49:30;;;;;;;;;;;;;;;24.87;42.03;101507.31;107351;1257;124447;-82
2023/06/25 10:52:00;;;;;;;;;;;;;;;24.82;42.24;101504.36;107676;1256;60768;-80
2023/06/25 10:54:27;;;;;;;;;;;;;;;24.90;42.33;101506.70;107709;1257;60051;-81
2023/06/25 10:57:11;;;;;;;;;;;;;;;25.01;42.41;101505.17;107571;1256;124259;-83
2023/06/25 10:59:40;;;;;;;;;;;;;;;25.13;42.19;101503.85;107349;1260;66899;-83
2023/06/25 11:02:10;;;;;;;;;;;;;;;25.22;42.30;101503.10;107495;1256;124335;-82
2023/06/25 11:04:38;;;;;;;;;;;;;;;25.31;42.06;101503.42;107556;1256;61769;-84
2023/06/25 11:07:10;;;;;;;;;;;;;;;25.38;41.73;101502.89;107534;1258;124208;-83
2023/06/25 11:09:39;;;;;;;;;;;;;;;25.48;41.74;101506.59;107781;1256;73024;-84
2023/06/25 11:12:07;;;;;;;;;;;;;;;25.52;41.71;101502.19;107650;1255;66957;-83
2023/06/25 11:14:34;;;;;;;;;;;;;;;25.52;41.72;101500.77;107662;1256;125084;-82
2023/06/25 11:17:01;;;;;;;;;;;;;;;25.48;41.76;101499.79;107891;1257;61270;-83
2023/06/25 11:19:30;;;;;;;;;;;;;;;25.48;41.73;101499.95;107248;1257;124328;-83
2023/06/25 11:21:57;;;;;;;;;;;;;;;25.47;41.53;101503.40;107596;1256;74751;-83
2023/06/25 11:24:24;;;;;;;;;;;;;;;25.40;41.46;101498.91;108495;1256;65822;-80
2023/06/25 11:26:56;;;;;;;;;;;;;;;25.33;41.35;101494.75;107911;1256;124075;-82
2023/06/25 11:29:33;;;;;;;;;;;;;;;25.32;41.65;101487.41;107708;1257;59567;-83
2023/06/25 11:32:02;;;;;;;;;;;;;;;25.34;41.65;101489.88;107663;1257;124733;-83
2023/06/25 11:34:30;;;;;;;;;;;;;;;25.36;41.61;101487.33;108104;1256;73183;-84
2023/06/25 11:37:07;;;;;;;;;;;;;;;25.36;41.35;101487.69;107401;1257;124258;-84
2023/06/25 11:39:43;;;;;;;;;;;;;;;25.34;41.47;101487.73;107486;1256;72585;-83
2023/06/25 11:42:21;;;;;;;;;;;;;;;25.29;41.48;101484.44;107469;1258;60204;-85
2023/06/25 11:44:59;;;;;;;;;;;;;;;25.29;41.41;101484.45;107210;1256;124272;-83
2023/06/25 11:47:26;;;;;;;;;;;;;;;25.30;41.39;101482.98;107581;1255;74395;-83
2023/06/25 11:49:53;;;;;;;;;;;;;;;25.30;41.32;101482.63;107579;1256;124313;-86
2023/06/25 11:52:21;;;;;;;;;;;;;;;25.26;41.58;101477.51;107610;1258;72703;-82
2023/06/25 11:54:54;;;;;;;;;;;;;;;25.24;41.43;101477.20;107382;1256;125078;-82
2023/06/25 11:57:26;;;;;;;;;;;;;;;25.17;41.43;101476.98;107289;1255;60492;-82
2023/06/25 12:00:12;;;;;;;;;;;;;;;25.13;41.50;101474.55;107391;1255;74190;-83
2023/06/25 12:02:53;;;;;;;;;;;;;;;25.13;41.56;101477.07;107484;1256;124286;-84
2023/06/25 12:05:29;;;;;;;;;;;;;;;25.16;41.53;101480.05;107618;1256;72720;-83
2023/06/25 12:07:57;;;;;;;;;;;;;;;25.17;41.49;101471.95;107394;1256;124652;-85
2023/06/25 12:10:42;;;;;;;;;;;;;;;25.12;41.42;101472.23;107420;1259;61788;-83
2023/06/25 12:13:10;;;;;;;;;;;;;;;25.10;41.39;101472.66;107347;1256;124364;-84
2023/06/25 12:15:49;;;;;;;;;;;;;;;25.05;41.58;101468.65;107516;1256;66886;-83
2023/06/25 12:18:17;;;;;;;;;;;;;;;25.03;41.43;101472.45;107722;1255;73705;-83
2023/06/25 12:20:43;;;;;;;;;;;;;;;25.02;41.59;101468.52;107442;1257;124312;-82
2023/06/25 12:23:17;;;;;;;;;;;;;;;25.04;41.58;101467.77;108179;1254;59115;-84
2023/06/25 12:25:44;;;;;;;;;;;;;;;25.10;41.48;101469.42;107349;1255;124553;-82
2023/06/25 12:28:11;;;;;;;;;;;;;;;25.12;41.44;101467.77;107475;1253;66911;-83
2023/06/25 12:30:51;;;;;;;;;;;;;;;25.12;41.30;101462.56;107391;1254;71845;-83
2023/06/25 12:33:18;;;;;;;;;;;;;;;25.14;41.33;101458.00;107043;1255;61460;-83
2023/06/25 12:35:45;;;;;;;;;;;;;;;25.16;41.15;101463.73;107393;1257;61749;-82
2023/06/25 12:38:13;;;;;;;;;;;;;;;25.14;40.76;101461.61;107488;1254;124262;-87
2023/06/25 12:40:40;;;;;;;;;;;;;;;25.02;40.79;101459.74;107398;1258;66502;-84
2023/06/25 12:43:15;;;;;;;;;;;;;;;24.95;40.76;101454.70;107413;1256;125209;-83
2023/06/25 12:45:56;;;;;;;;;;;;;;;24.95;40.86;101459.19;107725;1254;60325;-83
2023/06/25 12:48:24;;;;;;;;;;;;;;;24.96;40.73;101449.65;107880;1257;59539;-82